sensor_id;sensor_type;location;lat;lon;timestamp;P1;durP1;ratioP1;P2;durP2;ratioP2
1777;SDS011;71547;50.146;8.174;2023-12-20T00:01:18;1.48;;;0.80;;
1777;SDS011;71547;50.146;8.174;2023-12-20T00:03:46;0.80;;;0.80;;
1777;SDS011;71547;50.146;8.174;2023-12-20T00:06:18;0.80;;;0.73;;
1777;SDS011;71547;50.146;8.174;2023-12-20T00:08:47;0.80;;;0.70;;
1777;SDS011;71547;50.146;8.174;2023-12-20T00:11:19;0.85;;;0.70;;
1777;SDS011;71547;50.146;8.174;2023-12-20T00:13:49;0.80;;;0.70;;
1777;SDS011;71547;50.146;8.174;2023-12-20T00:16:17;0.85;;;0.70;;
1777;SDS011;71547;50.146;8.174;2023-12-20T00:18:48;0.98;;;0.80;;
1777;SDS011;71547;50.146;8.174;2023-12-20T00:21:15;0.90;;;0.73;;
1777;SDS011;71547;50.146;8.174;2023-12-20T00:23:42;1.00;;;0.90;;
1777;SDS011;71547;50.146;8.174;2023-12-20T00:26:09;1.00;;;0.80;;
1777;SDS011;71547;50.146;8.174;2023-12-20T00:28:36;0.90;;;0.80;;
1777;SDS011;71547;50.146;8.174;2023-12-20T00:31:04;0.98;;;0.77;;
1777;SDS011;71547;50.146;8.174;2023-12-20T00:33:31;0.73;;;0.60;;
1777;SDS011;71547;50.146;8.174;2023-12-20T00:36:00;1.20;;;0.80;;
1777;SDS011;71547;50.146;8.174;2023-12-20T00:38:27;0.80;;;0.65;;
1777;SDS011;71547;50.146;8.174;2023-12-20T00:40:54;0.80;;;0.60;;
1777;SDS011;71547;50.146;8.174;2023-12-20T00:43:21;0.80;;;0.60;;
1777;SDS011;71547;50.146;8.174;2023-12-20T00:45:48;0.70;;;0.60;;
1777;SDS011;71547;50.146;8.174;2023-12-20T00:48:16;1.02;;;0.70;;
1777;SDS011;71547;50.146;8.174;2023-12-20T00:50:43;0.80;;;0.80;;
1777;SDS011;71547;50.146;8.174;2023-12-20T00:53:11;0.90;;;0.70;;
1777;SDS011;71547;50.146;8.174;2023-12-20T00:55:38;0.90;;;0.80;;
1777;SDS011;71547;50.146;8.174;2023-12-20T00:58:06;0.80;;;0.70;;
1777;SDS011;71547;50.146;8.174;2023-12-20T01:00:33;0.80;;;0.60;;
1777;SDS011;71547;50.146;8.174;2023-12-20T01:03:00;0.80;;;0.70;;
1777;SDS011;71547;50.146;8.174;2023-12-20T01:05:27;0.80;;;0.70;;
1777;SDS011;71547;50.146;8.174;2023-12-20T01:07:55;0.90;;;0.80;;
1777;SDS011;71547;50.146;8.174;2023-12-20T01:10:23;0.80;;;0.80;;
1777;SDS011;71547;50.146;8.174;2023-12-20T01:12:54;0.80;;;0.70;;
1777;SDS011;71547;50.146;8.174;2023-12-20T01:15:21;0.80;;;0.60;;
1777;SDS011;71547;50.146;8.174;2023-12-20T01:17:48;0.80;;;0.65;;
1777;SDS011;71547;50.146;8.174;2023-12-20T01:20:15;0.80;;;0.70;;
1777;SDS011;71547;50.146;8.174;2023-12-20T01:22:43;1.10;;;0.82;;
1777;SDS011;71547;50.146;8.174;2023-12-20T01:25:12;0.90;;;0.70;;
1777;SDS011;71547;50.146;8.174;2023-12-20T01:27:40;0.80;;;0.70;;
1777;SDS011;71547;50.146;8.174;2023-12-20T01:30:08;0.80;;;0.70;;
1777;SDS011;71547;50.146;8.174;2023-12-20T01:32:36;0.95;;;0.82;;
1777;SDS011;71547;50.146;8.174;2023-12-20T01:35:04;1.00;;;0.90;;
1777;SDS011;71547;50.146;8.174;2023-12-20T01:37:31;0.88;;;0.70;;
1777;SDS011;71547;50.146;8.174;2023-12-20T01:39:58;0.90;;;0.70;;
1777;SDS011;71547;50.146;8.174;2023-12-20T01:42:25;1.00;;;0.80;;
1777;SDS011;71547;50.146;8.174;2023-12-20T01:44:54;0.80;;;0.70;;
1777;SDS011;71547;50.146;8.174;2023-12-20T01:47:21;0.75;;;0.60;;
1777;SDS011;71547;50.146;8.174;2023-12-20T01:49:49;0.80;;;0.80;;
1777;SDS011;71547;50.146;8.174;2023-12-20T01:52:17;0.80;;;0.80;;
1777;SDS011;71547;50.146;8.174;2023-12-20T01:54:45;1.10;;;0.80;;
1777;SDS011;71547;50.146;8.174;2023-12-20T01:57:13;0.93;;;0.80;;
1777;SDS011;71547;50.146;8.174;2023-12-20T01:59:40;0.80;;;0.73;;
1777;SDS011;71547;50.146;8.174;2023-12-20T02:02:09;0.80;;;0.68;;
1777;SDS011;71547;50.146;8.174;2023-12-20T02:04:38;0.90;;;0.80;;
1777;SDS011;71547;50.146;8.174;2023-12-20T02:07:06;0.80;;;0.80;;
1777;SDS011;71547;50.146;8.174;2023-12-20T02:09:35;1.05;;;0.88;;
1777;SDS011;71547;50.146;8.174;2023-12-20T02:12:02;0.82;;;0.80;;
1777;SDS011;71547;50.146;8.174;2023-12-20T02:14:30;1.67;;;0.95;;
1777;SDS011;71547;50.146;8.174;2023-12-20T02:16:57;1.13;;;1.02;;
1777;SDS011;71547;50.146;8.174;2023-12-20T02:19:25;0.80;;;0.70;;
1777;SDS011;71547;50.146;8.174;2023-12-20T02:22:05;0.93;;;0.82;;
1777;SDS011;71547;50.146;8.174;2023-12-20T02:24:34;1.10;;;1.00;;
1777;SDS011;71547;50.146;8.174;2023-12-20T02:27:02;0.90;;;0.90;;
1777;SDS011;71547;50.146;8.174;2023-12-20T02:29:29;0.80;;;0.80;;
1777;SDS011;71547;50.146;8.174;2023-12-20T02:31:57;1.50;;;0.90;;
1777;SDS011;71547;50.146;8.174;2023-12-20T02:34:25;1.00;;;0.90;;
1777;SDS011;71547;50.146;8.174;2023-12-20T02:36:52;1.00;;;0.85;;
1777;SDS011;71547;50.146;8.174;2023-12-20T02:39:20;1.10;;;1.00;;
1777;SDS011;71547;50.146;8.174;2023-12-20T02:41:48;1.15;;;1.00;;
1777;SDS011;71547;50.146;8.174;2023-12-20T02:44:15;1.27;;;1.17;;
1777;SDS011;71547;50.146;8.174;2023-12-20T02:46:42;1.10;;;1.00;;
1777;SDS011;71547;50.146;8.174;2023-12-20T02:49:11;1.15;;;1.05;;
1777;SDS011;71547;50.146;8.174;2023-12-20T02:51:39;1.10;;;0.90;;
1777;SDS011;71547;50.146;8.174;2023-12-20T02:54:06;1.08;;;0.98;;
1777;SDS011;71547;50.146;8.174;2023-12-20T02:56:34;1.20;;;1.10;;
1777;SDS011;71547;50.146;8.174;2023-12-20T02:59:01;1.40;;;0.90;;
1777;SDS011;71547;50.146;8.174;2023-12-20T03:01:31;1.08;;;0.98;;
1777;SDS011;71547;50.146;8.174;2023-12-20T03:03:58;1.20;;;1.00;;
1777;SDS011;71547;50.146;8.174;2023-12-20T03:06:25;1.30;;;1.20;;
1777;SDS011;71547;50.146;8.174;2023-12-20T03:08:52;1.30;;;1.20;;
1777;SDS011;71547;50.146;8.174;2023-12-20T03:11:19;1.38;;;1.27;;
1777;SDS011;71547;50.146;8.174;2023-12-20T03:13:48;1.10;;;1.00;;
1777;SDS011;71547;50.146;8.174;2023-12-20T03:16:15;1.20;;;1.10;;
1777;SDS011;71547;50.146;8.174;2023-12-20T03:18:42;1.35;;;1.25;;
1777;SDS011;71547;50.146;8.174;2023-12-20T03:21:10;1.40;;;1.30;;
1777;SDS011;71547;50.146;8.174;2023-12-20T03:23:36;1.02;;;0.93;;
1777;SDS011;71547;50.146;8.174;2023-12-20T03:26:05;1.23;;;1.13;;
1777;SDS011;71547;50.146;8.174;2023-12-20T03:28:34;1.10;;;1.00;;
1777;SDS011;71547;50.146;8.174;2023-12-20T03:31:03;1.10;;;1.00;;
1777;SDS011;71547;50.146;8.174;2023-12-20T03:33:31;0.88;;;0.88;;
1777;SDS011;71547;50.146;8.174;2023-12-20T03:35:58;1.00;;;0.90;;
1777;SDS011;71547;50.146;8.174;2023-12-20T03:38:25;1.00;;;0.90;;
1777;SDS011;71547;50.146;8.174;2023-12-20T03:40:52;2.63;;;1.02;;
1777;SDS011;71547;50.146;8.174;2023-12-20T03:43:19;1.20;;;1.10;;
1777;SDS011;71547;50.146;8.174;2023-12-20T03:45:46;1.40;;;1.30;;
1777;SDS011;71547;50.146;8.174;2023-12-20T03:48:14;1.20;;;1.10;;
1777;SDS011;71547;50.146;8.174;2023-12-20T03:50:41;1.50;;;1.40;;
1777;SDS011;71547;50.146;8.174;2023-12-20T03:53:08;1.40;;;1.30;;
1777;SDS011;71547;50.146;8.174;2023-12-20T03:55:36;1.70;;;1.60;;
1777;SDS011;71547;50.146;8.174;2023-12-20T03:58:03;2.22;;;2.13;;
1777;SDS011;71547;50.146;8.174;2023-12-20T04:00:30;3.30;;;3.10;;
1777;SDS011;71547;50.146;8.174;2023-12-20T04:02:57;3.63;;;3.38;;
1777;SDS011;71547;50.146;8.174;2023-12-20T04:05:26;2.60;;;2.40;;
1777;SDS011;71547;50.146;8.174;2023-12-20T04:07:53;2.60;;;2.40;;
1777;SDS011;71547;50.146;8.174;2023-12-20T04:10:20;2.72;;;2.53;;
1777;SDS011;71547;50.146;8.174;2023-12-20T04:12:47;2.72;;;2.45;;
1777;SDS011;71547;50.146;8.174;2023-12-20T04:15:16;3.00;;;2.80;;
1777;SDS011;71547;50.146;8.174;2023-12-20T04:17:46;2.70;;;2.50;;
1777;SDS011;71547;50.146;8.174;2023-12-20T04:20:14;3.83;;;2.90;;
1777;SDS011;71547;50.146;8.174;2023-12-20T04:22:42;3.60;;;3.30;;
1777;SDS011;71547;50.146;8.174;2023-12-20T04:25:09;3.13;;;2.83;;
1777;SDS011;71547;50.146;8.174;2023-12-20T04:27:36;5.20;;;2.55;;
1777;SDS011;71547;50.146;8.174;2023-12-20T04:30:04;2.92;;;2.72;;
1777;SDS011;71547;50.146;8.174;2023-12-20T04:32:34;5.63;;;2.20;;
1777;SDS011;71547;50.146;8.174;2023-12-20T04:35:01;3.85;;;1.88;;
1777;SDS011;71547;50.146;8.174;2023-12-20T04:37:28;1.80;;;1.60;;
1777;SDS011;71547;50.146;8.174;2023-12-20T04:39:57;3.25;;;2.38;;
1777;SDS011;71547;50.146;8.174;2023-12-20T04:42:24;5.20;;;1.88;;
1777;SDS011;71547;50.146;8.174;2023-12-20T04:44:51;3.75;;;1.40;;
1777;SDS011;71547;50.146;8.174;2023-12-20T04:47:18;2.00;;;1.70;;
1777;SDS011;71547;50.146;8.174;2023-12-20T04:49:45;4.82;;;1.60;;
1777;SDS011;71547;50.146;8.174;2023-12-20T04:52:12;4.63;;;1.90;;
1777;SDS011;71547;50.146;8.174;2023-12-20T04:54:41;1.70;;;1.55;;
1777;SDS011;71547;50.146;8.174;2023-12-20T04:57:11;2.53;;;1.40;;
1777;SDS011;71547;50.146;8.174;2023-12-20T04:59:38;3.20;;;1.50;;
1777;SDS011;71547;50.146;8.174;2023-12-20T05:02:05;2.15;;;1.40;;
1777;SDS011;71547;50.146;8.174;2023-12-20T05:04:33;2.97;;;1.60;;
1777;SDS011;71547;50.146;8.174;2023-12-20T05:07:00;2.10;;;1.48;;
1777;SDS011;71547;50.146;8.174;2023-12-20T05:09:27;1.65;;;1.35;;
1777;SDS011;71547;50.146;8.174;2023-12-20T05:11:54;2.20;;;1.13;;
1777;SDS011;71547;50.146;8.174;2023-12-20T05:14:22;2.03;;;1.20;;
1777;SDS011;71547;50.146;8.174;2023-12-20T05:16:51;4.85;;;1.75;;
1777;SDS011;71547;50.146;8.174;2023-12-20T05:19:18;2.97;;;1.65;;
1777;SDS011;71547;50.146;8.174;2023-12-20T05:21:45;1.55;;;1.45;;
1777;SDS011;71547;50.146;8.174;2023-12-20T05:24:12;6.88;;;1.90;;
1777;SDS011;71547;50.146;8.174;2023-12-20T05:26:39;3.08;;;1.55;;
1777;SDS011;71547;50.146;8.174;2023-12-20T05:29:06;2.28;;;1.52;;
1777;SDS011;71547;50.146;8.174;2023-12-20T05:31:34;3.17;;;1.65;;
1777;SDS011;71547;50.146;8.174;2023-12-20T05:34:01;8.27;;;1.52;;
1777;SDS011;71547;50.146;8.174;2023-12-20T05:36:29;4.40;;;1.58;;
1777;SDS011;71547;50.146;8.174;2023-12-20T05:38:56;2.65;;;1.70;;
1777;SDS011;71547;50.146;8.174;2023-12-20T05:41:23;5.78;;;2.70;;
1777;SDS011;71547;50.146;8.174;2023-12-20T05:43:50;8.13;;;1.88;;
1777;SDS011;71547;50.146;8.174;2023-12-20T05:46:17;6.50;;;2.45;;
1777;SDS011;71547;50.146;8.174;2023-12-20T05:48:45;5.18;;;2.30;;
1777;SDS011;71547;50.146;8.174;2023-12-20T05:51:13;2.95;;;1.90;;
1777;SDS011;71547;50.146;8.174;2023-12-20T05:53:40;1.77;;;1.65;;
1777;SDS011;71547;50.146;8.174;2023-12-20T05:56:07;2.40;;;2.20;;
1777;SDS011;71547;50.146;8.174;2023-12-20T05:58:34;4.85;;;1.80;;
1777;SDS011;71547;50.146;8.174;2023-12-20T06:01:03;3.33;;;2.15;;
1777;SDS011;71547;50.146;8.174;2023-12-20T06:03:30;4.97;;;3.70;;
1777;SDS011;71547;50.146;8.174;2023-12-20T06:05:59;1.90;;;1.80;;
1777;SDS011;71547;50.146;8.174;2023-12-20T06:08:42;9.73;;;2.35;;
1777;SDS011;71547;50.146;8.174;2023-12-20T06:11:10;2.67;;;1.67;;
1777;SDS011;71547;50.146;8.174;2023-12-20T06:13:37;3.47;;;1.50;;
1777;SDS011;71547;50.146;8.174;2023-12-20T06:16:05;4.18;;;2.22;;
1777;SDS011;71547;50.146;8.174;2023-12-20T06:18:33;3.60;;;1.90;;
1777;SDS011;71547;50.146;8.174;2023-12-20T06:21:02;5.97;;;2.45;;
1777;SDS011;71547;50.146;8.174;2023-12-20T06:23:30;4.43;;;1.65;;
1777;SDS011;71547;50.146;8.174;2023-12-20T06:25:57;3.03;;;2.50;;
1777;SDS011;71547;50.146;8.174;2023-12-20T06:28:24;3.53;;;1.90;;
1777;SDS011;71547;50.146;8.174;2023-12-20T06:30:51;3.33;;;1.83;;
1777;SDS011;71547;50.146;8.174;2023-12-20T06:33:20;2.33;;;1.88;;
1777;SDS011;71547;50.146;8.174;2023-12-20T06:35:48;3.63;;;2.00;;
1777;SDS011;71547;50.146;8.174;2023-12-20T06:38:17;2.25;;;1.92;;
1777;SDS011;71547;50.146;8.174;2023-12-20T06:40:45;3.45;;;2.05;;
1777;SDS011;71547;50.146;8.174;2023-12-20T06:43:12;3.58;;;2.25;;
1777;SDS011;71547;50.146;8.174;2023-12-20T06:45:57;3.17;;;2.10;;
1777;SDS011;71547;50.146;8.174;2023-12-20T06:48:25;5.75;;;2.28;;
1777;SDS011;71547;50.146;8.174;2023-12-20T06:50:52;2.50;;;2.30;;
1777;SDS011;71547;50.146;8.174;2023-12-20T06:53:20;2.65;;;2.10;;
1777;SDS011;71547;50.146;8.174;2023-12-20T06:55:47;4.88;;;1.70;;
1777;SDS011;71547;50.146;8.174;2023-12-20T06:58:14;2.17;;;1.98;;
1777;SDS011;71547;50.146;8.174;2023-12-20T07:00:42;2.95;;;2.00;;
1777;SDS011;71547;50.146;8.174;2023-12-20T07:03:10;3.05;;;2.55;;
1777;SDS011;71547;50.146;8.174;2023-12-20T07:05:37;3.88;;;2.30;;
1777;SDS011;71547;50.146;8.174;2023-12-20T07:08:05;3.65;;;2.10;;
1777;SDS011;71547;50.146;8.174;2023-12-20T07:10:34;4.28;;;1.95;;
1777;SDS011;71547;50.146;8.174;2023-12-20T07:13:03;5.10;;;1.80;;
1777;SDS011;71547;50.146;8.174;2023-12-20T07:15:34;1.95;;;1.75;;
1777;SDS011;71547;50.146;8.174;2023-12-20T07:18:03;4.05;;;1.85;;
1777;SDS011;71547;50.146;8.174;2023-12-20T07:20:31;3.58;;;2.00;;
1777;SDS011;71547;50.146;8.174;2023-12-20T07:22:59;4.05;;;2.15;;
1777;SDS011;71547;50.146;8.174;2023-12-20T07:25:26;3.35;;;1.80;;
1777;SDS011;71547;50.146;8.174;2023-12-20T07:27:55;4.95;;;1.92;;
1777;SDS011;71547;50.146;8.174;2023-12-20T07:30:22;3.33;;;1.95;;
1777;SDS011;71547;50.146;8.174;2023-12-20T07:32:49;2.30;;;2.10;;
1777;SDS011;71547;50.146;8.174;2023-12-20T07:35:16;5.03;;;2.15;;
1777;SDS011;71547;50.146;8.174;2023-12-20T07:37:44;3.35;;;2.08;;
1777;SDS011;71547;50.146;8.174;2023-12-20T07:40:11;12.50;;;3.22;;
1777;SDS011;71547;50.146;8.174;2023-12-20T07:42:39;2.00;;;1.90;;
1777;SDS011;71547;50.146;8.174;2023-12-20T07:45:08;4.32;;;2.63;;
1777;SDS011;71547;50.146;8.174;2023-12-20T07:47:37;1.90;;;1.70;;
1777;SDS011;71547;50.146;8.174;2023-12-20T07:50:04;2.22;;;2.03;;
1777;SDS011;71547;50.146;8.174;2023-12-20T07:52:32;4.22;;;2.22;;
1777;SDS011;71547;50.146;8.174;2023-12-20T07:54:59;1.60;;;1.50;;
1777;SDS011;71547;50.146;8.174;2023-12-20T07:57:28;5.10;;;2.58;;
1777;SDS011;71547;50.146;8.174;2023-12-20T07:59:56;2.85;;;2.10;;
1777;SDS011;71547;50.146;8.174;2023-12-20T08:02:24;1.80;;;1.70;;
1777;SDS011;71547;50.146;8.174;2023-12-20T08:04:51;3.90;;;1.63;;
1777;SDS011;71547;50.146;8.174;2023-12-20T08:07:18;2.40;;;1.90;;
1777;SDS011;71547;50.146;8.174;2023-12-20T08:09:45;3.38;;;1.33;;
1777;SDS011;71547;50.146;8.174;2023-12-20T08:12:13;4.10;;;2.00;;
1777;SDS011;71547;50.146;8.174;2023-12-20T08:14:40;5.85;;;2.17;;
1777;SDS011;71547;50.146;8.174;2023-12-20T08:17:07;4.93;;;1.63;;
1777;SDS011;71547;50.146;8.174;2023-12-20T08:19:35;5.05;;;1.98;;
1777;SDS011;71547;50.146;8.174;2023-12-20T08:22:05;7.82;;;2.38;;
1777;SDS011;71547;50.146;8.174;2023-12-20T08:24:32;2.83;;;1.60;;
1777;SDS011;71547;50.146;8.174;2023-12-20T08:26:59;2.38;;;1.30;;
1777;SDS011;71547;50.146;8.174;2023-12-20T08:29:26;3.72;;;1.95;;
1777;SDS011;71547;50.146;8.174;2023-12-20T08:31:53;10.65;;;2.13;;
1777;SDS011;71547;50.146;8.174;2023-12-20T08:34:21;4.15;;;2.05;;
1777;SDS011;71547;50.146;8.174;2023-12-20T08:36:51;3.22;;;1.70;;
1777;SDS011;71547;50.146;8.174;2023-12-20T08:39:18;2.95;;;1.75;;
1777;SDS011;71547;50.146;8.174;2023-12-20T08:41:45;3.13;;;1.77;;
1777;SDS011;71547;50.146;8.174;2023-12-20T08:44:12;4.20;;;1.95;;
1777;SDS011;71547;50.146;8.174;2023-12-20T08:46:39;6.88;;;2.38;;
1777;SDS011;71547;50.146;8.174;2023-12-20T08:49:06;4.05;;;2.13;;
1777;SDS011;71547;50.146;8.174;2023-12-20T08:51:35;3.72;;;2.17;;
1777;SDS011;71547;50.146;8.174;2023-12-20T08:54:04;4.85;;;2.03;;
1777;SDS011;71547;50.146;8.174;2023-12-20T08:56:34;2.22;;;1.65;;
1777;SDS011;71547;50.146;8.174;2023-12-20T08:59:01;8.18;;;2.05;;
1777;SDS011;71547;50.146;8.174;2023-12-20T09:01:28;2.78;;;1.83;;
1777;SDS011;71547;50.146;8.174;2023-12-20T09:03:56;8.57;;;2.60;;
1777;SDS011;71547;50.146;8.174;2023-12-20T09:06:23;8.00;;;3.15;;
1777;SDS011;71547;50.146;8.174;2023-12-20T09:08:51;3.53;;;2.08;;
1777;SDS011;71547;50.146;8.174;2023-12-20T09:11:19;5.75;;;2.42;;
1777;SDS011;71547;50.146;8.174;2023-12-20T09:13:46;4.38;;;2.30;;
1777;SDS011;71547;50.146;8.174;2023-12-20T09:16:13;15.27;;;2.50;;
1777;SDS011;71547;50.146;8.174;2023-12-20T09:18:42;5.45;;;1.80;;
1777;SDS011;71547;50.146;8.174;2023-12-20T09:21:09;4.50;;;2.85;;
1777;SDS011;71547;50.146;8.174;2023-12-20T09:23:36;2.50;;;2.30;;
1777;SDS011;71547;50.146;8.174;2023-12-20T09:26:03;6.70;;;2.15;;
1777;SDS011;71547;50.146;8.174;2023-12-20T09:28:32;4.65;;;2.13;;
1777;SDS011;71547;50.146;8.174;2023-12-20T09:31:03;2.75;;;2.40;;
1777;SDS011;71547;50.146;8.174;2023-12-20T09:33:31;6.97;;;2.58;;
1777;SDS011;71547;50.146;8.174;2023-12-20T09:35:59;6.38;;;2.35;;
1777;SDS011;71547;50.146;8.174;2023-12-20T09:38:26;2.33;;;2.13;;
1777;SDS011;71547;50.146;8.174;2023-12-20T09:40:53;3.25;;;2.53;;
1777;SDS011;71547;50.146;8.174;2023-12-20T09:43:23;7.00;;;2.40;;
1777;SDS011;71547;50.146;8.174;2023-12-20T09:45:58;8.68;;;3.00;;
1777;SDS011;71547;50.146;8.174;2023-12-20T09:48:28;2.95;;;2.60;;
1777;SDS011;71547;50.146;8.174;2023-12-20T09:50:56;5.32;;;2.15;;
1777;SDS011;71547;50.146;8.174;2023-12-20T09:53:23;3.92;;;2.40;;
1777;SDS011;71547;50.146;8.174;2023-12-20T09:55:56;8.43;;;1.90;;
1777;SDS011;71547;50.146;8.174;2023-12-20T09:58:26;3.10;;;2.03;;
1777;SDS011;71547;50.146;8.174;2023-12-20T10:00:53;5.47;;;2.05;;
1777;SDS011;71547;50.146;8.174;2023-12-20T10:03:24;4.40;;;2.30;;
1777;SDS011;71547;50.146;8.174;2023-12-20T10:05:56;7.63;;;2.63;;
1777;SDS011;71547;50.146;8.174;2023-12-20T10:08:24;5.55;;;2.03;;
1777;SDS011;71547;50.146;8.174;2023-12-20T10:10:51;10.95;;;3.05;;
1777;SDS011;71547;50.146;8.174;2023-12-20T10:13:19;2.67;;;2.35;;
1777;SDS011;71547;50.146;8.174;2023-12-20T10:15:46;5.05;;;2.15;;
1777;SDS011;71547;50.146;8.174;2023-12-20T10:18:13;4.47;;;2.10;;
1777;SDS011;71547;50.146;8.174;2023-12-20T10:20:43;7.53;;;2.90;;
1777;SDS011;71547;50.146;8.174;2023-12-20T10:23:12;3.35;;;2.28;;
1777;SDS011;71547;50.146;8.174;2023-12-20T10:25:39;2.58;;;2.38;;
1777;SDS011;71547;50.146;8.174;2023-12-20T10:28:08;7.85;;;2.72;;
1777;SDS011;71547;50.146;8.174;2023-12-20T10:30:37;5.47;;;2.50;;
1777;SDS011;71547;50.146;8.174;2023-12-20T10:33:05;5.40;;;2.35;;
1777;SDS011;71547;50.146;8.174;2023-12-20T10:35:34;3.13;;;1.90;;
1777;SDS011;71547;50.146;8.174;2023-12-20T10:38:04;6.18;;;2.60;;
1777;SDS011;71547;50.146;8.174;2023-12-20T10:40:33;5.22;;;2.70;;
1777;SDS011;71547;50.146;8.174;2023-12-20T10:43:03;3.97;;;2.72;;
1777;SDS011;71547;50.146;8.174;2023-12-20T10:45:31;4.45;;;3.08;;
1777;SDS011;71547;50.146;8.174;2023-12-20T10:47:58;9.30;;;2.60;;
1777;SDS011;71547;50.146;8.174;2023-12-20T10:50:26;5.10;;;2.15;;
1777;SDS011;71547;50.146;8.174;2023-12-20T10:52:54;4.45;;;2.17;;
1777;SDS011;71547;50.146;8.174;2023-12-20T10:55:28;3.50;;;2.00;;
1777;SDS011;71547;50.146;8.174;2023-12-20T10:58:05;5.40;;;2.03;;
1777;SDS011;71547;50.146;8.174;2023-12-20T11:00:56;3.50;;;1.95;;
1777;SDS011;71547;50.146;8.174;2023-12-20T11:03:31;8.32;;;2.60;;
1777;SDS011;71547;50.146;8.174;2023-12-20T11:06:03;5.88;;;2.30;;
1777;SDS011;71547;50.146;8.174;2023-12-20T11:08:46;3.50;;;2.28;;
1777;SDS011;71547;50.146;8.174;2023-12-20T11:11:20;4.28;;;2.33;;
1777;SDS011;71547;50.146;8.174;2023-12-20T11:13:54;6.70;;;2.50;;
1777;SDS011;71547;50.146;8.174;2023-12-20T11:16:26;4.78;;;2.33;;
1777;SDS011;71547;50.146;8.174;2023-12-20T11:19:07;5.53;;;2.30;;
1777;SDS011;71547;50.146;8.174;2023-12-20T11:21:34;2.30;;;2.10;;
1777;SDS011;71547;50.146;8.174;2023-12-20T11:24:01;3.10;;;1.85;;
1777;SDS011;71547;50.146;8.174;2023-12-20T11:26:31;5.93;;;2.75;;
1777;SDS011;71547;50.146;8.174;2023-12-20T11:31:56;6.07;;;2.38;;
1777;SDS011;71547;50.146;8.174;2023-12-20T11:34:26;4.05;;;2.47;;
1777;SDS011;71547;50.146;8.174;2023-12-20T11:37:03;5.47;;;2.30;;
1777;SDS011;71547;50.146;8.174;2023-12-20T11:39:30;6.55;;;2.22;;
1777;SDS011;71547;50.146;8.174;2023-12-20T11:41:59;6.85;;;2.78;;
1777;SDS011;71547;50.146;8.174;2023-12-20T11:44:33;4.20;;;2.13;;
1777;SDS011;71547;50.146;8.174;2023-12-20T11:47:05;6.28;;;2.40;;
1777;SDS011;71547;50.146;8.174;2023-12-20T11:49:33;4.45;;;2.20;;
1777;SDS011;71547;50.146;8.174;2023-12-20T11:52:03;3.42;;;2.17;;
1777;SDS011;71547;50.146;8.174;2023-12-20T11:54:33;7.72;;;2.25;;
1777;SDS011;71547;50.146;8.174;2023-12-20T11:57:01;3.88;;;1.98;;
1777;SDS011;71547;50.146;8.174;2023-12-20T11:59:29;7.35;;;2.65;;
1777;SDS011;71547;50.146;8.174;2023-12-20T12:01:58;5.82;;;2.30;;
1777;SDS011;71547;50.146;8.174;2023-12-20T12:04:34;4.45;;;1.98;;
1777;SDS011;71547;50.146;8.174;2023-12-20T12:07:01;2.55;;;2.13;;
1777;SDS011;71547;50.146;8.174;2023-12-20T12:09:29;3.28;;;1.52;;
1777;SDS011;71547;50.146;8.174;2023-12-20T12:11:56;8.00;;;2.08;;
1777;SDS011;71547;50.146;8.174;2023-12-20T12:14:25;9.32;;;3.05;;
1777;SDS011;71547;50.146;8.174;2023-12-20T12:16:52;3.25;;;2.03;;
1777;SDS011;71547;50.146;8.174;2023-12-20T12:19:20;4.75;;;2.00;;
1777;SDS011;71547;50.146;8.174;2023-12-20T12:21:51;4.53;;;2.20;;
1777;SDS011;71547;50.146;8.174;2023-12-20T12:24:39;3.55;;;3.22;;
1777;SDS011;71547;50.146;8.174;2023-12-20T12:27:10;6.63;;;2.40;;
1777;SDS011;71547;50.146;8.174;2023-12-20T12:29:59;2.92;;;1.80;;
1777;SDS011;71547;50.146;8.174;2023-12-20T12:32:28;9.90;;;2.25;;
1777;SDS011;71547;50.146;8.174;2023-12-20T12:34:56;3.45;;;2.00;;
1777;SDS011;71547;50.146;8.174;2023-12-20T12:37:23;3.80;;;2.20;;
1777;SDS011;71547;50.146;8.174;2023-12-20T12:39:52;8.52;;;2.47;;
1777;SDS011;71547;50.146;8.174;2023-12-20T12:42:21;8.40;;;2.97;;
1777;SDS011;71547;50.146;8.174;2023-12-20T12:44:53;4.20;;;2.83;;
1777;SDS011;71547;50.146;8.174;2023-12-20T12:47:20;4.95;;;1.90;;
1777;SDS011;71547;50.146;8.174;2023-12-20T12:49:49;3.50;;;2.90;;
1777;SDS011;71547;50.146;8.174;2023-12-20T12:52:17;2.80;;;2.50;;
1777;SDS011;71547;50.146;8.174;2023-12-20T12:54:44;5.75;;;2.15;;
1777;SDS011;71547;50.146;8.174;2023-12-20T12:57:13;3.65;;;2.30;;
1777;SDS011;71547;50.146;8.174;2023-12-20T12:59:41;5.20;;;1.83;;
1777;SDS011;71547;50.146;8.174;2023-12-20T13:02:12;4.30;;;2.38;;
1777;SDS011;71547;50.146;8.174;2023-12-20T13:04:40;4.43;;;2.85;;
1777;SDS011;71547;50.146;8.174;2023-12-20T13:07:08;3.83;;;2.42;;
1777;SDS011;71547;50.146;8.174;2023-12-20T13:09:38;5.85;;;2.53;;
1777;SDS011;71547;50.146;8.174;2023-12-20T13:12:06;3.25;;;2.20;;
1777;SDS011;71547;50.146;8.174;2023-12-20T13:14:34;3.40;;;2.22;;
1777;SDS011;71547;50.146;8.174;2023-12-20T13:17:07;6.43;;;2.78;;
1777;SDS011;71547;50.146;8.174;2023-12-20T13:19:44;6.68;;;2.72;;
1777;SDS011;71547;50.146;8.174;2023-12-20T13:22:12;5.25;;;2.40;;
1777;SDS011;71547;50.146;8.174;2023-12-20T13:24:39;3.13;;;2.85;;
1777;SDS011;71547;50.146;8.174;2023-12-20T13:27:06;6.63;;;2.58;;
1777;SDS011;71547;50.146;8.174;2023-12-20T13:29:33;5.05;;;2.10;;
1777;SDS011;71547;50.146;8.174;2023-12-20T13:32:04;5.45;;;2.65;;
1777;SDS011;71547;50.146;8.174;2023-12-20T13:34:33;4.38;;;2.33;;
1777;SDS011;71547;50.146;8.174;2023-12-20T13:37:01;4.43;;;2.50;;
1777;SDS011;71547;50.146;8.174;2023-12-20T13:39:28;3.75;;;2.42;;
1777;SDS011;71547;50.146;8.174;2023-12-20T13:41:56;3.70;;;2.40;;
1777;SDS011;71547;50.146;8.174;2023-12-20T13:44:26;4.57;;;2.20;;
1777;SDS011;71547;50.146;8.174;2023-12-20T13:46:53;2.28;;;2.13;;
1777;SDS011;71547;50.146;8.174;2023-12-20T13:49:20;4.47;;;2.45;;
1777;SDS011;71547;50.146;8.174;2023-12-20T13:51:53;3.28;;;1.95;;
1777;SDS011;71547;50.146;8.174;2023-12-20T13:54:21;4.70;;;2.50;;
1777;SDS011;71547;50.146;8.174;2023-12-20T13:56:48;4.95;;;2.70;;
1777;SDS011;71547;50.146;8.174;2023-12-20T13:59:34;8.75;;;2.55;;
1777;SDS011;71547;50.146;8.174;2023-12-20T14:02:01;2.78;;;2.55;;
1777;SDS011;71547;50.146;8.174;2023-12-20T14:04:30;2.50;;;1.90;;
1777;SDS011;71547;50.146;8.174;2023-12-20T14:07:10;5.53;;;2.70;;
1777;SDS011;71547;50.146;8.174;2023-12-20T14:09:38;4.15;;;2.50;;
1777;SDS011;71547;50.146;8.174;2023-12-20T14:12:06;9.77;;;2.22;;
1777;SDS011;71547;50.146;8.174;2023-12-20T14:14:35;6.20;;;2.20;;
1777;SDS011;71547;50.146;8.174;2023-12-20T14:17:02;10.63;;;2.08;;
1777;SDS011;71547;50.146;8.174;2023-12-20T14:19:30;4.82;;;1.80;;
1777;SDS011;71547;50.146;8.174;2023-12-20T14:21:57;4.80;;;1.90;;
1777;SDS011;71547;50.146;8.174;2023-12-20T14:24:29;5.00;;;1.95;;
1777;SDS011;71547;50.146;8.174;2023-12-20T14:26:56;3.60;;;1.75;;
1777;SDS011;71547;50.146;8.174;2023-12-20T14:29:25;3.05;;;1.70;;
1777;SDS011;71547;50.146;8.174;2023-12-20T14:31:53;4.65;;;1.88;;
1777;SDS011;71547;50.146;8.174;2023-12-20T14:34:20;3.33;;;1.73;;
1777;SDS011;71547;50.146;8.174;2023-12-20T14:36:50;1.98;;;1.20;;
1777;SDS011;71547;50.146;8.174;2023-12-20T14:39:18;2.00;;;1.80;;
1777;SDS011;71547;50.146;8.174;2023-12-20T14:41:47;2.83;;;1.55;;
1777;SDS011;71547;50.146;8.174;2023-12-20T14:44:16;3.67;;;1.67;;
1777;SDS011;71547;50.146;8.174;2023-12-20T14:46:44;2.85;;;1.88;;
1777;SDS011;71547;50.146;8.174;2023-12-20T14:49:11;2.03;;;1.80;;
1777;SDS011;71547;50.146;8.174;2023-12-20T14:51:38;3.97;;;1.73;;
1777;SDS011;71547;50.146;8.174;2023-12-20T14:54:05;4.07;;;1.58;;
1777;SDS011;71547;50.146;8.174;2023-12-20T14:56:36;5.93;;;2.00;;
1777;SDS011;71547;50.146;8.174;2023-12-20T14:59:05;2.83;;;1.60;;
1777;SDS011;71547;50.146;8.174;2023-12-20T15:01:32;2.72;;;1.70;;
1777;SDS011;71547;50.146;8.174;2023-12-20T15:03:59;6.35;;;2.10;;
1777;SDS011;71547;50.146;8.174;2023-12-20T15:06:27;4.53;;;1.70;;
1777;SDS011;71547;50.146;8.174;2023-12-20T15:08:54;7.93;;;2.17;;
1777;SDS011;71547;50.146;8.174;2023-12-20T15:11:21;2.67;;;1.48;;